Time;durP1;ratioP1;P1;durP2;ratioP2;P2;SDS_P1;SDS_P2;PMS_P1;PMS_P2;Temp;Humidity;BMP_temperature;BMP_pressure;BME280_temperature;BME280_humidity;BME280_pressure;Samples;Min_cycle;Max_cycle;Signal;HPM_P1;HPM_P2
2022/07/15 00:00:43;;;;;;;1.30;1.20;;;;;;;20.33;100.00;99274.91;5051325;28;20255;-79
2022/07/15 00:03:10;;;;;;;1.37;1.27;;;;;;;20.25;100.00;99275.53;5064139;28;20260;-79
2022/07/15 00:05:36;;;;;;;1.30;1.20;;;;;;;20.25;100.00;99272.78;5048473;28;20233;-79
2022/07/15 00:08:03;;;;;;;1.77;1.60;;;;;;;20.25;100.00;99259.97;5057588;28;20266;-80
2022/07/15 00:10:30;;;;;;;1.40;1.30;;;;;;;20.23;100.00;99248.59;5049870;28;20284;-80
2022/07/15 00:12:59;;;;;;;2.73;1.23;;;;;;;20.14;100.00;99237.56;5064388;28;20250;-79
2022/07/15 00:15:29;;;;;;;3.33;1.40;;;;;;;20.03;100.00;99225.19;5057007;28;20316;-80
2022/07/15 00:18:01;;;;;;;2.30;1.10;;;;;;;20.01;100.00;99213.00;5051086;28;20228;-80
2022/07/15 00:20:33;;;;;;;1.73;1.40;;;;;;;20.15;100.00;99212.00;5057504;28;20691;-79
2022/07/15 00:23:05;;;;;;;3.47;1.70;;;;;;;20.18;100.00;99213.31;5049712;28;20269;-81
2022/07/15 00:25:31;;;;;;;1.67;1.40;;;;;;;19.96;100.00;99241.06;5048619;28;20224;-79
2022/07/15 00:28:01;;;;;;;1.87;1.43;;;;;;;19.82;100.00;99253.72;5061210;28;20325;-79
2022/07/15 00:30:32;;;;;;;2.00;1.70;;;;;;;19.74;100.00;99276.88;5041653;28;20228;-79
2022/07/15 00:33:00;;;;;;;1.50;1.40;;;;;;;19.68;100.00;99305.25;5060874;28;20308;-80
2022/07/15 00:35:28;;;;;;;1.50;1.40;;;;;;;19.67;100.00;99308.22;5054770;28;20225;-79
2022/07/15 00:37:55;;;;;;;1.70;1.60;;;;;;;19.63;100.00;99326.22;5050907;28;20231;-79
2022/07/15 00:40:23;;;;;;;2.40;1.40;;;;;;;19.53;100.00;99346.13;5052649;28;20256;-80
2022/07/15 00:42:50;;;;;;;1.33;1.23;;;;;;;19.57;100.00;99374.34;5045339;28;20227;-79
2022/07/15 00:45:21;;;;;;;1.70;1.60;;;;;;;19.72;100.00;99389.72;5048565;28;20305;-79
2022/07/15 00:47:57;;;;;;;1.70;1.60;;;;;;;19.73;100.00;99381.28;5056310;28;20293;-79
2022/07/15 00:50:27;;;;;;;2.60;1.60;;;;;;;19.65;100.00;99372.91;5065275;28;20805;-79
2022/07/15 00:53:04;;;;;;;2.70;1.80;;;;;;;19.70;100.00;99384.56;5046439;28;20231;-79
2022/07/15 00:55:32;;;;;;;3.33;1.80;;;;;;;19.81;100.00;99376.31;5074878;28;20241;-79
2022/07/15 00:58:04;;;;;;;3.07;1.80;;;;;;;19.87;100.00;99369.75;5071520;28;20292;-79
2022/07/15 01:00:32;;;;;;;2.57;2.00;;;;;;;19.68;100.00;99337.03;5071582;28;20227;-79
2022/07/15 01:03:00;;;;;;;2.47;2.20;;;;;;;19.59;100.00;99327.88;5068035;28;20227;-78
2022/07/15 01:05:27;;;;;;;3.37;2.10;;;;;;;19.44;100.00;99287.25;5067022;28;20313;-78
2022/07/15 01:07:54;;;;;;;2.87;2.20;;;;;;;19.30;100.00;99260.72;5076912;28;20231;-79
2022/07/15 01:10:23;;;;;;;3.47;2.30;;;;;;;19.22;100.00;99261.31;5070277;28;20254;-79
2022/07/15 01:12:51;;;;;;;2.47;2.17;;;;;;;19.15;100.00;99258.13;5074681;28;20237;-79
2022/07/15 01:15:25;;;;;;;2.00;1.80;;;;;;;19.17;100.00;99255.97;5077217;28;20235;-78
2022/07/15 01:17:52;;;;;;;1.90;1.80;;;;;;;19.14;100.00;99251.06;5053705;28;20235;-79
2022/07/15 01:20:18;;;;;;;2.30;2.20;;;;;;;19.10;100.00;99254.66;5039072;28;20224;-79
2022/07/15 01:22:54;;;;;;;3.13;2.37;;;;;;;19.10;100.00;99257.38;5068603;28;20233;-78
2022/07/15 01:25:27;;;;;;;3.57;2.57;;;;;;;19.00;100.00;99277.25;5071017;28;20250;-79
2022/07/15 01:27:54;;;;;;;2.10;2.00;;;;;;;18.96;100.00;99278.09;5056282;28;20227;-77
2022/07/15 01:30:24;;;;;;;2.30;2.10;;;;;;;19.08;100.00;99287.53;5058740;28;20260;-77
2022/07/15 01:32:51;;;;;;;2.37;1.80;;;;;;;19.18;100.00;99298.28;5064184;28;20221;-77
2022/07/15 01:35:18;;;;;;;2.67;1.93;;;;;;;19.13;100.00;99303.75;5064112;28;20315;-76
2022/07/15 01:37:47;;;;;;;1.97;1.87;;;;;;;19.10;100.00;99298.09;5069619;28;20289;-77
2022/07/15 01:40:15;;;;;;;2.17;1.80;;;;;;;19.09;100.00;99294.56;5068589;28;20255;-78
2022/07/15 01:42:42;;;;;;;2.57;1.90;;;;;;;19.06;100.00;99287.00;5060642;28;20240;-77
2022/07/15 01:45:12;;;;;;;2.27;2.10;;;;;;;18.89;100.00;99297.44;5070843;28;20230;-77
2022/07/15 01:47:57;;;;;;;2.30;2.10;;;;;;;18.88;100.00;99310.19;5068332;28;20233;-77
2022/07/15 01:50:43;;;;;;;2.43;1.90;;;;;;;18.79;100.00;99292.88;5088615;28;20225;-77
2022/07/15 01:53:13;;;;;;;2.93;2.30;;;;;;;18.80;100.00;99315.41;5074014;28;20738;-76
2022/07/15 01:55:41;;;;;;;2.37;2.00;;;;;;;18.57;100.00;99314.16;5073661;28;20235;-76
2022/07/15 01:58:07;;;;;;;2.50;2.30;;;;;;;18.65;100.00;99308.16;5080579;28;20653;-76
2022/07/15 02:00:34;;;;;;;2.87;2.30;;;;;;;18.58;100.00;99323.94;5061126;28;20256;-75
2022/07/15 02:03:01;;;;;;;3.67;2.30;;;;;;;18.60;100.00;99321.75;5081057;28;20260;-78
2022/07/15 02:05:28;;;;;;;2.60;2.20;;;;;;;18.65;100.00;99334.50;5072843;28;20236;-78
2022/07/15 02:07:55;;;;;;;2.50;2.30;;;;;;;18.77;100.00;99343.09;5069104;28;20767;-78
2022/07/15 02:10:23;;;;;;;2.33;2.20;;;;;;;18.71;100.00;99355.88;5075452;28;20296;-79
2022/07/15 02:12:51;;;;;;;2.60;2.40;;;;;;;18.79;100.00;99355.31;5077569;28;20260;-78
2022/07/15 02:15:23;;;;;;;2.57;2.47;;;;;;;18.86;100.00;99363.94;5077440;28;20232;-79
2022/07/15 02:17:55;;;;;;;2.47;2.33;;;;;;;18.75;100.00;99348.00;5077645;28;20650;-78
2022/07/15 02:20:26;;;;;;;2.90;2.70;;;;;;;18.72;100.00;99345.84;5077562;28;20273;-79
2022/07/15 02:22:57;;;;;;;3.00;2.80;;;;;;;18.85;100.00;99337.06;5059576;28;20254;-78
2022/07/15 02:25:29;;;;;;;4.80;2.97;;;;;;;18.78;100.00;99345.53;5078599;28;20227;-78
2022/07/15 02:27:59;;;;;;;4.77;3.20;;;;;;;18.81;100.00;99357.72;5075743;28;20738;-78
2022/07/15 02:30:32;;;;;;;3.93;3.10;;;;;;;18.83;100.00;99347.41;5088925;28;20596;-77
2022/07/15 02:32:59;;;;;;;3.10;2.90;;;;;;;18.78;100.00;99340.13;5057452;28;20232;-77
2022/07/15 02:35:26;;;;;;;3.00;2.77;;;;;;;18.78;100.00;99345.53;5087240;28;20253;-78
2022/07/15 02:37:53;;;;;;;3.33;3.03;;;;;;;18.82;100.00;99367.50;5094885;28;20232;-78
2022/07/15 02:40:20;;;;;;;3.47;2.97;;;;;;;18.73;100.00;99371.88;5078441;28;20252;-78
2022/07/15 02:42:52;;;;;;;3.37;3.00;;;;;;;18.69;100.00;99363.50;5090508;28;20227;-77
2022/07/15 02:45:21;;;;;;;3.40;3.00;;;;;;;18.33;100.00;99380.97;5054855;28;20237;-77
2022/07/15 02:47:48;;;;;;;3.67;3.37;;;;;;;17.96;100.00;99370.50;5062156;28;20228;-76
2022/07/15 02:50:21;;;;;;;4.60;3.30;;;;;;;17.81;100.00;99374.03;5071737;28;20243;-77
2022/07/15 02:52:48;;;;;;;3.90;3.60;;;;;;;17.73;100.00;99377.28;5071222;28;20220;-77
2022/07/15 02:55:16;;;;;;;4.47;3.97;;;;;;;17.47;100.00;99373.75;5074971;28;20286;-77
2022/07/15 02:57:42;;;;;;;4.77;4.37;;;;;;;17.14;100.00;99385.06;5078475;28;20816;-76
2022/07/15 03:00:12;;;;;;;5.13;4.60;;;;;;;16.82;100.00;99376.34;5106135;28;20224;-76
2022/07/15 03:02:39;;;;;;;5.07;4.67;;;;;;;16.83;100.00;99381.50;5062502;28;20232;-76
2022/07/15 03:05:08;;;;;;;6.00;4.67;;;;;;;16.81;100.00;99370.13;5069958;28;20227;-76
2022/07/15 03:07:36;;;;;;;5.70;5.17;;;;;;;16.87;100.00;99365.53;5072778;28;20766;-78
2022/07/15 03:10:03;;;;;;;5.73;5.10;;;;;;;16.92;100.00;99374.47;5076874;28;20220;-77
2022/07/15 03:12:30;;;;;;;5.43;4.67;;;;;;;16.86;100.00;99374.72;5090651;28;20734;-78
2022/07/15 03:14:59;;;;;;;5.90;4.43;;;;;;;16.91;100.00;99382.84;5090890;28;20224;-77
2022/07/15 03:17:26;;;;;;;5.67;5.20;;;;;;;16.80;100.00;99371.19;5076808;28;20319;-77
2022/07/15 03:19:52;;;;;;;5.70;5.20;;;;;;;16.93;100.00;99361.78;5085649;28;20247;-77
2022/07/15 03:22:19;;;;;;;6.73;5.00;;;;;;;16.89;100.00;99341.75;5091979;28;20231;-78
2022/07/15 03:24:48;;;;;;;5.37;4.90;;;;;;;16.95;100.00;99365.81;5083444;28;20301;-79
2022/07/15 03:27:16;;;;;;;5.70;4.43;;;;;;;17.08;100.00;99369.91;5098765;28;20228;-79
2022/07/15 03:29:43;;;;;;;4.90;4.50;;;;;;;17.11;100.00;99377.50;5076836;28;20217;-78
2022/07/15 03:32:11;;;;;;;6.07;4.70;;;;;;;17.13;100.00;99386.97;5080833;28;20236;-76
2022/07/15 03:34:38;;;;;;;5.20;4.70;;;;;;;17.02;100.00;99387.22;5084332;28;20244;-75
2022/07/15 03:37:05;;;;;;;5.50;5.00;;;;;;;17.18;100.00;99378.03;5082112;28;20322;-76
2022/07/15 03:39:31;;;;;;;5.37;4.67;;;;;;;17.20;100.00;99364.25;5096687;28;20232;-76
2022/07/15 03:41:58;;;;;;;5.00;4.60;;;;;;;17.24;100.00;99370.75;5085570;28;20235;-76
2022/07/15 03:44:25;;;;;;;5.03;4.60;;;;;;;17.26;100.00;99353.16;5076827;28;20227;-76
2022/07/15 03:46:51;;;;;;;5.10;4.70;;;;;;;17.24;100.00;99349.09;5084056;28;20260;-76
2022/07/15 03:49:18;;;;;;;6.77;4.90;;;;;;;17.39;100.00;99349.91;5093760;28;20375;-76
2022/07/15 03:51:45;;;;;;;5.73;5.20;;;;;;;17.54;100.00;99368.06;5073826;28;20666;-76
2022/07/15 03:54:12;;;;;;;5.60;4.90;;;;;;;17.60;100.00;99367.81;5084971;28;20704;-76
2022/07/15 03:56:42;;;;;;;5.70;5.20;;;;;;;17.63;100.00;99369.19;5059554;28;20250;-76
2022/07/15 03:59:09;;;;;;;6.67;5.47;;;;;;;17.64;100.00;99367.28;5089863;28;20239;-77
2022/07/15 04:01:35;;;;;;;6.37;5.60;;;;;;;17.65;100.00;99388.66;5086713;28;20252;-76
2022/07/15 04:04:02;;;;;;;6.17;5.57;;;;;;;17.74;100.00;99383.50;5065935;28;20597;-78
2022/07/15 04:06:29;;;;;;;6.73;5.93;;;;;;;17.63;100.00;99369.19;5094117;28;20259;-76
2022/07/15 04:08:56;;;;;;;6.30;5.70;;;;;;;17.74;100.00;99370.78;5087232;28;20264;-77
2022/07/15 04:11:23;;;;;;;6.27;5.67;;;;;;;17.78;100.00;99371.03;5068273;28;20605;-78
2022/07/15 04:13:49;;;;;;;6.70;6.20;;;;;;;17.80;100.00;99385.13;5081298;28;20232;-79
2022/07/15 04:16:17;;;;;;;6.57;6.07;;;;;;;17.96;100.00;99378.63;5083623;28;20752;-79
2022/07/15 04:18:46;;;;;;;6.60;5.87;;;;;;;18.01;100.00;99384.84;5067569;28;20232;-79
2022/07/15 04:21:13;;;;;;;6.80;6.10;;;;;;;18.11;100.00;99396.75;5078669;28;20652;-78
2022/07/15 04:23:40;;;;;;;6.80;6.20;;;;;;;18.09;100.00;99390.78;5078669;28;20243;-78
2022/07/15 04:26:08;;;;;;;7.27;6.57;;;;;;;18.17;100.00;99398.38;5105838;28;20243;-80
2022/07/15 04:28:35;;;;;;;7.43;6.40;;;;;;;18.20;100.00;99395.09;5071756;28;20289;-79
2022/07/15 04:31:02;;;;;;;7.20;6.50;;;;;;;18.20;100.00;99398.63;5072715;28;20232;-78
2022/07/15 04:33:39;;;;;;;7.30;6.57;;;;;;;18.40;100.00;99411.31;5064771;28;20314;-78
2022/07/15 04:36:06;;;;;;;7.07;6.47;;;;;;;18.52;100.00;99414.56;5096456;28;20239;-78
2022/07/15 04:38:33;;;;;;;7.23;6.53;;;;;;;18.53;100.00;99415.34;5077331;28;20251;-79
2022/07/15 04:41:00;;;;;;;6.63;6.00;;;;;;;18.58;100.00;99421.59;5083764;28;20342;-79
2022/07/15 04:43:27;;;;;;;6.67;5.97;;;;;;;18.58;100.00;99418.06;5071073;28;20236;-79
2022/07/15 04:45:55;;;;;;;7.17;6.47;;;;;;;18.75;100.00;99418.56;5063811;28;20227;-78
2022/07/15 04:51:13;;;;;;;6.40;5.80;;;;;;;19.08;100.00;99436.06;5078137;28;20236;-81
2022/07/15 04:53:40;;;;;;;7.40;6.40;;;;;;;19.16;100.00;99449.03;5099680;28;20716;-78
2022/07/15 04:56:07;;;;;;;7.83;5.60;;;;;;;19.53;100.00;99454.00;5078375;28;20608;-79
2022/07/15 04:58:35;;;;;;;6.83;5.77;;;;;;;19.55;100.00;99457.25;5076752;28;20702;-80
2022/07/15 05:01:04;;;;;;;6.50;6.00;;;;;;;19.56;100.00;99459.69;5072654;28;20242;-78
2022/07/15 05:03:31;;;;;;;6.67;5.87;;;;;;;19.62;100.00;99453.13;5075711;28;20220;-78
2022/07/15 05:05:58;;;;;;;6.27;5.77;;;;;;;19.83;100.00;99453.75;5076975;28;20285;-79
2022/07/15 05:08:32;;;;;;;6.33;5.73;;;;;;;19.75;100.00;99459.81;5082166;28;20236;-78
2022/07/15 05:11:00;;;;;;;6.40;5.53;;;;;;;19.76;100.00;99461.44;5087637;28;20224;-78
2022/07/15 05:13:27;;;;;;;5.80;5.30;;;;;;;19.71;100.00;99456.84;5064434;28;20239;-79
2022/07/15 05:15:57;;;;;;;6.20;5.60;;;;;;;19.83;100.00;99470.06;5080852;28;20730;-79
2022/07/15 05:18:25;;;;;;;6.07;5.57;;;;;;;19.74;100.00;99475.31;5100743;28;20229;-80
2022/07/15 05:20:54;;;;;;;5.80;5.30;;;;;;;19.59;100.00;99470.00;5073977;28;20231;-79
2022/07/15 05:23:25;;;;;;;5.50;5.00;;;;;;;19.59;100.00;99480.88;5076147;28;20233;-83
2022/07/15 05:25:56;;;;;;;5.23;4.73;;;;;;;19.53;100.00;99484.72;5099953;28;20239;-78
2022/07/15 05:28:23;;;;;;;6.00;5.37;;;;;;;19.54;100.00;99486.34;5078973;28;20242;-78
2022/07/15 05:30:50;;;;;;;6.27;5.67;;;;;;;19.41;100.00;99483.41;5071123;28;20580;-78
2022/07/15 05:33:17;;;;;;;5.30;4.80;;;;;;;19.42;100.00;99495.88;5089182;28;20706;-78
2022/07/15 05:35:45;;;;;;;5.20;4.70;;;;;;;19.40;100.00;99496.16;5077777;28;20708;-78
2022/07/15 05:38:21;;;;;;;5.93;5.40;;;;;;;19.58;100.00;99498.25;5056922;28;20234;-79
2022/07/15 05:40:51;;;;;;;5.43;5.00;;;;;;;19.68;100.00;99511.78;5055856;28;20757;-78
2022/07/15 05:43:18;;;;;;;7.87;4.80;;;;;;;19.68;100.00;99522.66;5099083;28;20228;-79
2022/07/15 05:45:45;;;;;;;5.17;4.70;;;;;;;19.75;100.00;99527.75;5082950;28;20234;-81
2022/07/15 05:48:12;;;;;;;5.37;4.70;;;;;;;19.89;100.00;99541.53;5056965;28;20312;-81
2022/07/15 05:50:49;;;;;;;5.10;4.70;;;;;;;20.09;100.00;99533.25;5089437;28;20232;-80
2022/07/15 05:53:16;;;;;;;5.27;4.67;;;;;;;20.29;100.00;99526.81;5060789;28;20656;-81
2022/07/15 05:55:43;;;;;;;4.77;4.30;;;;;;;20.46;100.00;99538.94;5063660;28;20258;-81
2022/07/15 05:58:15;;;;;;;5.40;4.67;;;;;;;20.52;100.00;99539.69;5072669;28;20316;-81
2022/07/15 06:00:42;;;;;;;4.60;4.20;;;;;;;20.78;100.00;99534.81;5065382;28;20231;-81
2022/07/15 06:03:09;;;;;;;5.50;5.00;;;;;;;20.81;100.00;99547.84;5063153;28;20783;-81
2022/07/15 06:05:42;;;;;;;5.20;4.33;;;;;;;20.81;100.00;99540.47;5069515;28;20298;-81
2022/07/15 06:08:10;;;;;;;5.23;4.20;;;;;;;20.65;100.00;99539.03;5062937;28;20236;-81
2022/07/15 06:10:39;;;;;;;4.23;3.87;;;;;;;20.52;100.00;99540.53;5050315;28;20235;-81
2022/07/15 06:13:05;;;;;;;4.30;4.00;;;;;;;20.58;100.00;99543.97;5061539;28;20596;-81
2022/07/15 06:15:33;;;;;;;4.87;4.17;;;;;;;20.58;100.00;99543.97;5076979;28;20627;-81
2022/07/15 06:17:59;;;;;;;4.30;4.00;;;;;;;20.44;100.00;99546.56;5074810;28;20274;-80
2022/07/15 06:20:30;;;;;;;4.40;4.00;;;;;;;20.51;100.00;99546.25;5071270;28;20257;-81
2022/07/15 06:22:59;;;;;;;5.17;4.07;;;;;;;20.53;100.00;99553.00;5056763;28;20277;-80
2022/07/15 06:25:26;;;;;;;4.93;3.67;;;;;;;20.59;100.00;99556.50;5043870;28;20263;-80
2022/07/15 06:27:52;;;;;;;4.03;3.63;;;;;;;20.16;100.00;99563.63;5090534;28;20239;-78
2022/07/15 06:30:20;;;;;;;5.00;3.80;;;;;;;20.38;100.00;99566.78;5088734;28;20230;-78
2022/07/15 06:32:46;;;;;;;4.10;3.30;;;;;;;20.36;100.00;99563.50;5099539;28;20284;-79
2022/07/15 06:35:13;;;;;;;4.07;3.60;;;;;;;20.56;100.00;99565.25;5087748;28;20262;-79
2022/07/15 06:37:41;;;;;;;5.33;3.37;;;;;;;20.49;100.00;99567.47;5084430;28;20253;-79
2022/07/15 06:40:09;;;;;;;5.60;3.27;;;;;;;20.69;100.00;99567.28;5092756;28;20316;-78
2022/07/15 06:42:37;;;;;;;5.20;3.43;;;;;;;20.58;100.00;99577.44;5072184;28;20644;-78
2022/07/15 06:45:07;;;;;;;4.50;3.10;;;;;;;20.75;100.00;99584.38;5073387;28;20243;-78
2022/07/15 06:47:34;;;;;;;3.67;3.33;;;;;;;20.96;100.00;99589.34;5074977;28;20226;-79
2022/07/15 06:50:01;;;;;;;3.37;3.03;;;;;;;21.09;100.00;99587.81;5062687;28;20239;-77
2022/07/15 06:52:27;;;;;;;3.40;3.00;;;;;;;21.30;100.00;99577.53;5045185;28;20285;-79
2022/07/15 06:54:55;;;;;;;4.73;3.30;;;;;;;21.36;100.00;99590.03;5050824;28;20234;-79
2022/07/15 06:57:22;;;;;;;4.40;2.77;;;;;;;21.53;99.50;99593.06;5050070;28;20615;-78
2022/07/15 06:59:50;;;;;;;3.90;2.80;;;;;;;21.76;93.61;99602.31;5045769;28;20322;-79
2022/07/15 07:02:17;;;;;;;4.03;2.43;;;;;;;21.84;83.22;99609.81;5039584;28;20693;-78
2022/07/15 07:04:44;;;;;;;2.80;2.50;;;;;;;21.83;85.00;99616.41;5043731;28;20960;-78
2022/07/15 07:07:12;;;;;;;3.40;2.50;;;;;;;22.16;82.91;99615.38;5048340;28;20261;-79
2022/07/15 07:09:39;;;;;;;4.00;2.50;;;;;;;22.18;74.80;99610.44;5048012;28;20327;-79
2022/07/15 07:12:06;;;;;;;3.37;2.50;;;;;;;21.82;80.70;99618.31;5035412;28;20260;-78
2022/07/15 07:14:33;;;;;;;4.90;2.40;;;;;;;21.47;84.70;99629.66;5052468;28;20252;-82
2022/07/15 07:16:59;;;;;;;2.30;2.10;;;;;;;21.56;80.62;99633.34;5049423;28;20232;-80
2022/07/15 07:19:26;;;;;;;2.77;2.03;;;;;;;21.84;74.62;99640.63;5050608;28;20231;-77
2022/07/15 07:21:52;;;;;;;4.23;2.23;;;;;;;22.10;71.26;99632.13;5047792;28;20278;-78
2022/07/15 07:24:19;;;;;;;3.67;2.10;;;;;;;22.37;69.77;99637.72;5051819;28;20253;-78
2022/07/15 07:26:46;;;;;;;3.03;2.20;;;;;;;22.32;69.25;99635.88;5053747;28;20246;-78
2022/07/15 07:29:14;;;;;;;4.67;2.10;;;;;;;22.36;68.09;99631.44;5055630;28;20313;-78
2022/07/15 07:31:41;;;;;;;4.97;2.13;;;;;;;22.01;68.76;99629.25;5052142;28;20262;-79
2022/07/15 07:34:07;;;;;;;3.70;2.27;;;;;;;21.97;69.96;99630.16;5056475;28;20240;-79
2022/07/15 07:36:34;;;;;;;2.63;1.90;;;;;;;21.85;70.62;99627.81;5056747;28;20233;-78
2022/07/15 07:39:01;;;;;;;2.83;2.00;;;;;;;22.09;69.92;99630.50;5057258;28;20669;-78
2022/07/15 07:41:28;;;;;;;3.47;2.00;;;;;;;22.18;67.86;99628.72;5056454;28;20277;-79
2022/07/15 07:43:55;;;;;;;2.80;2.17;;;;;;;22.26;64.70;99633.50;5056698;28;20745;-78
2022/07/15 07:46:21;;;;;;;2.90;1.70;;;;;;;21.97;68.44;99635.59;5057505;28;20730;-78
2022/07/15 07:48:48;;;;;;;4.20;2.10;;;;;;;22.07;67.37;99628.06;5050274;28;20242;-78
2022/07/15 07:51:17;;;;;;;5.60;2.07;;;;;;;22.42;64.81;99634.91;5083028;28;20227;-79
2022/07/15 07:53:46;;;;;;;5.37;1.97;;;;;;;22.65;65.46;99631.25;5071844;28;20233;-79
2022/07/15 07:56:13;;;;;;;3.43;1.80;;;;;;;22.64;62.67;99634.28;5068647;28;20253;-78
2022/07/15 07:58:39;;;;;;;14.70;2.90;;;;;;;22.72;62.26;99631.69;5091470;28;20230;-78
2022/07/15 08:01:06;;;;;;;4.70;2.30;;;;;;;22.92;64.54;99632.47;5099972;28;20314;-79
2022/07/15 08:03:33;;;;;;;2.47;2.10;;;;;;;23.21;61.82;99631.09;5089408;28;20817;-79
2022/07/15 08:06:00;;;;;;;4.50;1.90;;;;;;;23.24;60.92;99632.41;5082637;28;20236;-79
2022/07/15 08:08:26;;;;;;;3.00;2.27;;;;;;;23.37;60.02;99630.81;5092342;28;20229;-78
2022/07/15 08:10:55;;;;;;;3.20;2.10;;;;;;;23.57;57.33;99641.34;5095035;28;20791;-78
2022/07/15 08:13:24;;;;;;;5.70;1.90;;;;;;;23.61;57.07;99631.41;5088532;28;20735;-78
2022/07/15 08:15:53;;;;;;;2.20;1.80;;;;;;;23.96;53.23;99629.84;5071652;28;20272;-78
2022/07/15 08:18:28;;;;;;;4.17;2.07;;;;;;;24.16;55.07;99632.19;5086644;28;20239;-78
2022/07/15 08:20:55;;;;;;;3.20;2.10;;;;;;;24.17;53.47;99630.25;5098447;28;20223;-78
2022/07/15 08:23:22;;;;;;;4.43;1.80;;;;;;;24.00;53.04;99620.72;5094281;28;20232;-78
2022/07/15 08:25:50;;;;;;;3.00;1.97;;;;;;;24.39;51.01;99617.38;5089934;28;20232;-79
2022/07/15 08:28:17;;;;;;;3.23;2.00;;;;;;;24.46;49.23;99614.19;5078451;28;20231;-78
2022/07/15 08:30:45;;;;;;;5.27;1.90;;;;;;;24.81;49.87;99620.72;5091498;28;20600;-78
2022/07/15 08:33:11;;;;;;;1.88;1.40;;;;;;;25.31;47.08;99624.06;5076250;28;20717;-79
2022/07/15 08:35:40;;;;;;;4.20;1.63;;;;;;;25.12;45.38;99626.22;5076635;28;20243;-79
2022/07/15 08:38:08;;;;;;;3.40;1.60;;;;;;;24.73;47.32;99622.28;5100009;28;20254;-78
2022/07/15 08:40:36;;;;;;;8.82;1.63;;;;;;;24.68;47.61;99630.66;5083093;28;20234;-79
2022/07/15 08:43:06;;;;;;;4.70;1.70;;;;;;;24.08;49.21;99614.50;5070123;28;20297;-78
2022/07/15 08:45:37;;;;;;;3.97;1.60;;;;;;;24.01;50.88;99618.81;5072283;28;20255;-79
2022/07/15 08:48:05;;;;;;;5.65;1.50;;;;;;;24.07;50.20;99618.38;5102585;28;20405;-80
2022/07/15 08:50:33;;;;;;;4.18;1.65;;;;;;;24.03;51.36;99608.34;5095475;28;20707;-79
2022/07/15 08:53:00;;;;;;;3.83;1.60;;;;;;;24.09;52.29;99618.06;5077620;28;20220;-78
2022/07/15 08:55:28;;;;;;;2.55;1.65;;;;;;;24.10;51.95;99606.81;5081279;28;20235;-78
2022/07/15 08:57:54;;;;;;;3.28;1.70;;;;;;;23.86;52.69;99605.44;5086430;28;20709;-80
2022/07/15 09:00:28;;;;;;;4.45;1.70;;;;;;;23.91;48.10;99608.06;5084475;28;20236;-79
2022/07/15 09:02:59;;;;;;;3.75;1.20;;;;;;;23.94;49.70;99608.25;5090548;28;20319;-79
2022/07/15 09:05:34;;;;;;;2.10;1.38;;;;;;;23.87;49.17;99601.59;5079540;28;20222;-78
2022/07/15 09:08:11;;;;;;;3.38;1.67;;;;;;;23.86;48.46;99611.72;5090981;28;20817;-77
2022/07/15 09:10:57;;;;;;;4.25;1.75;;;;;;;23.92;50.71;99601.50;5078706;28;20239;-79
2022/07/15 09:13:25;;;;;;;3.60;1.63;;;;;;;24.09;50.71;99610.66;5087550;28;20232;-79
2022/07/15 09:15:54;;;;;;;4.30;1.77;;;;;;;24.02;50.90;99613.03;5093261;28;20259;-79
2022/07/15 09:18:24;;;;;;;3.55;1.70;;;;;;;24.28;51.13;99604.25;5078377;28;20341;-78
2022/07/15 09:20:51;;;;;;;3.65;1.48;;;;;;;24.35;50.16;99610.91;5079523;28;20347;-78
2022/07/15 09:23:24;;;;;;;3.45;1.65;;;;;;;24.86;47.32;99606.91;5098289;28;20310;-78
2022/07/15 09:25:51;;;;;;;3.08;1.50;;;;;;;24.77;46.58;99614.25;5075096;28;20235;-79
2022/07/15 09:28:17;;;;;;;3.22;1.58;;;;;;;25.11;45.68;99617.19;5089922;28;20278;-79
2022/07/15 09:33:40;;;;;;;2.78;1.58;;;;;;;24.92;45.66;99609.19;5086610;28;20700;-80
2022/07/15 09:36:07;;;;;;;4.03;1.67;;;;;;;24.89;45.89;99603.53;5088243;28;20714;-79
2022/07/15 09:38:41;;;;;;;2.25;1.55;;;;;;;24.96;45.32;99601.97;5091000;28;20654;-79
2022/07/15 09:41:28;;;;;;;2.72;1.60;;;;;;;25.04;45.21;99605.06;5094384;28;20253;-79
2022/07/15 09:44:11;;;;;;;3.63;1.73;;;;;;;25.79;42.56;99615.84;5087147;28;20229;-78
2022/07/15 09:46:58;;;;;;;4.30;1.85;;;;;;;26.04;42.13;99619.72;5090176;28;20313;-79
2022/07/15 09:49:24;;;;;;;4.45;1.52;;;;;;;25.96;41.23;99610.38;5098036;28;20265;-79
2022/07/15 09:51:54;;;;;;;3.22;1.85;;;;;;;26.13;41.78;99617.81;5085418;28;20225;-79
2022/07/15 09:54:30;;;;;;;6.25;1.73;;;;;;;26.57;41.34;99612.00;5089996;28;21332;-79
2022/07/15 09:56:59;;;;;;;5.05;1.80;;;;;;;26.97;40.57;99615.31;5088607;28;20236;-78
2022/07/15 09:59:27;;;;;;;3.05;1.60;;;;;;;26.79;39.63;99610.16;5077171;28;20292;-79
2022/07/15 10:01:53;;;;;;;3.20;1.58;;;;;;;26.92;39.33;99610.00;5073990;28;20223;-79
2022/07/15 10:04:24;;;;;;;4.07;1.63;;;;;;;27.13;39.13;99604.59;5086007;28;20290;-79
2022/07/15 10:06:53;;;;;;;4.97;1.80;;;;;;;27.89;38.61;99619.13;5067928;28;20256;-79
2022/07/15 10:09:40;;;;;;;3.10;1.75;;;;;;;27.66;36.89;99611.50;5084835;28;20239;-79
2022/07/15 10:12:09;;;;;;;3.53;2.08;;;;;;;27.38;36.46;99611.94;5085225;28;20237;-78
2022/07/15 10:14:52;;;;;;;3.47;1.52;;;;;;;27.43;37.07;99605.44;5090569;28;20263;-81
2022/07/15 10:17:25;;;;;;;4.45;1.80;;;;;;;27.27;38.12;99620.88;5091190;28;20598;-79
2022/07/15 10:20:07;;;;;;;2.33;1.80;;;;;;;27.63;37.46;99618.44;5089985;28;20243;-79
2022/07/15 10:22:42;;;;;;;3.35;1.85;;;;;;;27.51;37.13;99612.88;5088703;28;20264;-79
2022/07/15 10:25:18;;;;;;;4.57;1.67;;;;;;;27.62;37.25;99616.88;5085371;28;20237;-79
2022/07/15 10:28:03;;;;;;;2.95;1.63;;;;;;;27.36;37.54;99616.16;5070414;28;20232;-78
2022/07/15 10:30:30;;;;;;;5.75;2.00;;;;;;;26.76;38.48;99614.38;5093264;28;20238;-79
2022/07/15 10:33:02;;;;;;;4.72;1.98;;;;;;;27.22;37.55;99607.31;5087714;28;20251;-82
2022/07/15 10:35:37;;;;;;;3.25;2.00;;;;;;;27.38;37.04;99598.19;5093793;28;20233;-78
2022/07/15 10:38:23;;;;;;;2.58;1.90;;;;;;;27.64;37.68;99606.31;5085381;28;20238;-79
2022/07/15 10:40:59;;;;;;;2.67;1.75;;;;;;;27.07;37.42;99598.47;5090685;28;20304;-79
2022/07/15 10:43:46;;;;;;;3.13;1.75;;;;;;;27.38;37.49;99603.69;5077497;28;20219;-78
2022/07/15 10:46:15;;;;;;;2.35;2.00;;;;;;;27.46;36.72;99605.56;5097633;28;20243;-79
2022/07/15 10:48:44;;;;;;;4.28;2.20;;;;;;;27.40;37.47;99595.88;5099329;28;20228;-80
2022/07/15 10:51:12;;;;;;;4.72;2.20;;;;;;;27.36;37.53;99608.69;5062148;28;20325;-79
2022/07/15 10:53:48;;;;;;;3.92;1.90;;;;;;;27.01;38.30;99607.25;5061797;28;20318;-79
2022/07/15 10:56:30;;;;;;;3.13;2.00;;;;;;;27.07;38.22;99601.22;5042460;28;20225;-79
2022/07/15 10:59:11;;;;;;;3.55;1.80;;;;;;;27.43;37.34;99594.44;5047183;28;20245;-80
2022/07/15 11:01:46;;;;;;;4.68;1.95;;;;;;;27.67;37.31;99596.59;5036583;28;20233;-79
2022/07/15 11:04:19;;;;;;;3.40;1.90;;;;;;;27.82;37.48;99602.31;5045904;28;20228;-79
2022/07/15 11:07:04;;;;;;;3.60;2.22;;;;;;;27.76;36.77;99591.84;5049773;28;20721;-79
2022/07/15 11:09:47;;;;;;;2.33;1.80;;;;;;;27.91;36.26;99574.72;5048340;28;20259;-78
2022/07/15 11:12:15;;;;;;;3.67;2.05;;;;;;;28.44;35.17;99571.22;5054230;28;20229;-79
2022/07/15 11:15:09;;;;;;;4.10;2.17;;;;;;;28.12;36.40;99578.31;5047392;28;20312;-78
2022/07/15 11:17:35;;;;;;;4.38;2.08;;;;;;;28.11;36.31;99584.97;5055096;28;20240;-80
2022/07/15 11:20:11;;;;;;;1.80;1.70;;;;;;;28.16;36.71;99578.44;5053245;28;20769;-78
2022/07/15 11:22:43;;;;;;;2.67;2.05;;;;;;;28.23;35.74;99567.69;5051967;28;20308;-79
2022/07/15 11:25:18;;;;;;;5.35;2.13;;;;;;;28.44;35.45;99572.00;5056088;28;20589;-79
2022/07/15 11:28:05;;;;;;;3.97;1.92;;;;;;;28.57;36.25;99572.84;5051903;28;20249;-79
2022/07/15 11:30:33;;;;;;;2.55;2.03;;;;;;;28.37;35.01;99574.50;5058316;28;20233;-79
2022/07/15 11:33:03;;;;;;;4.32;2.20;;;;;;;28.29;36.02;99572.63;5054576;28;20256;-79
2022/07/15 11:35:30;;;;;;;4.22;1.88;;;;;;;28.38;35.65;99569.81;5048639;28;20226;-78
2022/07/15 11:37:58;;;;;;;2.63;2.10;;;;;;;28.76;35.23;99570.41;5046657;28;20252;-79
2022/07/15 11:46:04;;;;;;;2.20;1.92;;;;;;;28.52;34.65;99561.22;5051050;28;20609;-79
2022/07/15 11:48:36;;;;;;;3.80;2.00;;;;;;;28.13;35.49;99568.09;5044749;28;20226;-80
2022/07/15 11:51:04;;;;;;;2.10;1.75;;;;;;;28.10;36.15;99563.22;5073712;28;20236;-79